Time;durP1;ratioP1;P1;durP2;ratioP2;P2;SDS_P1;SDS_P2;PMS_P1;PMS_P2;Temp;Humidity;BMP_temperature;BMP_pressure;BME280_temperature;BME280_humidity;BME280_pressure;Samples;Min_cycle;Max_cycle;Signal;HPM_P1;HPM_P2
2024/01/08 00:01:55;;;;;;;3.83;2.77;;;;;;;5.91;100.00;98821.84;5074340;28;20539;-74
2024/01/08 00:04:21;;;;;;;0.80;0.80;;;;;;;5.90;100.00;98832.97;5074621;28;20222;-74
2024/01/08 00:06:50;;;;;;;0.90;0.90;;;;;;;5.63;100.00;98827.44;5074528;28;20570;-73
2024/01/08 00:09:18;;;;;;;0.83;0.83;;;;;;;5.84;100.00;98843.16;5074313;28;20222;-74
2024/01/08 00:11:45;;;;;;;0.90;0.90;;;;;;;5.85;100.00;98847.47;5074188;28;20206;-74
2024/01/08 00:14:12;;;;;;;0.80;0.80;;;;;;;5.77;100.00;98841.34;5074509;28;20202;-74
2024/01/08 00:16:38;;;;;;;0.90;0.90;;;;;;;5.75;100.00;98843.88;5074610;28;20199;-74
2024/01/08 00:19:05;;;;;;;0.90;0.90;;;;;;;5.55;100.00;98823.88;5073984;28;20230;-74
2024/01/08 00:21:32;;;;;;;0.90;0.90;;;;;;;5.64;100.00;98844.56;5074021;28;20232;-73
2024/01/08 00:23:59;;;;;;;0.80;0.80;;;;;;;5.60;100.00;98848.81;5073747;28;20194;-73
2024/01/08 00:26:27;;;;;;;2.60;1.37;;;;;;;5.54;100.00;98847.84;5073791;28;20658;-73
2024/01/08 00:28:54;;;;;;;0.70;0.70;;;;;;;5.50;100.00;98852.94;5073648;28;20190;-73
2024/01/08 00:31:21;;;;;;;1.37;1.37;;;;;;;5.46;100.00;98848.59;5074037;28;20213;-73
2024/01/08 00:33:47;;;;;;;0.70;0.70;;;;;;;5.44;100.00;98842.59;5073783;28;20191;-73
2024/01/08 00:36:14;;;;;;;0.97;0.97;;;;;;;5.29;100.00;98841.47;5073597;28;20238;-73
2024/01/08 00:38:41;;;;;;;0.90;0.90;;;;;;;5.54;100.00;98853.88;5073703;28;20313;-73
2024/01/08 00:41:08;;;;;;;0.80;0.80;;;;;;;5.47;100.00;98868.34;5073658;28;20667;-73
2024/01/08 00:43:36;;;;;;;0.90;0.90;;;;;;;5.46;100.00;98864.03;5073530;28;20654;-73
2024/01/08 00:46:03;;;;;;;0.90;0.90;;;;;;;5.49;100.00;98871.78;5073873;28;20202;-72
2024/01/08 00:48:30;;;;;;;0.80;0.80;;;;;;;5.50;100.00;98864.94;5073706;28;20211;-72
2024/01/08 00:50:56;;;;;;;0.80;0.80;;;;;;;5.43;100.00;98846.00;5073231;28;20206;-74
2024/01/08 00:53:23;;;;;;;0.80;0.80;;;;;;;5.55;100.00;98859.88;5073287;28;20209;-72
2024/01/08 00:55:50;;;;;;;0.80;0.80;;;;;;;5.52;100.00;98880.41;5072860;28;20211;-72
2024/01/08 00:58:17;;;;;;;0.70;0.70;;;;;;;5.43;100.00;98871.69;5072617;28;20226;-71
2024/01/08 01:00:45;;;;;;;0.80;0.80;;;;;;;5.39;100.00;98884.47;5037921;28;20207;-71
2024/01/08 01:03:12;;;;;;;0.80;0.80;;;;;;;5.49;100.00;98887.19;5073361;28;20206;-72
2024/01/08 01:05:38;;;;;;;0.90;0.90;;;;;;;5.35;100.00;98891.25;5072671;28;20207;-72
2024/01/08 01:08:06;;;;;;;0.80;0.80;;;;;;;5.46;100.00;98882.03;5073536;28;20278;-72
2024/01/08 01:10:32;;;;;;;0.70;0.70;;;;;;;5.46;100.00;98892.28;5073170;28;20207;-73
2024/01/08 01:13:00;;;;;;;1.00;1.00;;;;;;;5.29;100.00;98875.75;5070980;28;20202;-73
2024/01/08 01:15:27;;;;;;;1.07;0.97;;;;;;;5.26;100.00;98893.69;5054290;28;20233;-73
2024/01/08 01:17:55;;;;;;;0.73;0.73;;;;;;;5.28;100.00;98901.44;5054423;28;20297;-72
2024/01/08 01:20:22;;;;;;;0.77;0.77;;;;;;;5.24;100.00;98903.09;5073322;28;20226;-73
2024/01/08 01:22:49;;;;;;;0.80;0.80;;;;;;;5.29;100.00;98903.16;5072922;28;20198;-73
2024/01/08 01:25:16;;;;;;;1.00;1.00;;;;;;;5.30;100.00;98913.47;5072726;28;20203;-73
2024/01/08 01:27:42;;;;;;;0.80;0.80;;;;;;;5.29;100.00;98909.16;5072937;28;20654;-73
2024/01/08 01:30:10;;;;;;;0.70;0.70;;;;;;;5.52;100.00;98918.94;5073210;28;20199;-73
2024/01/08 01:32:36;;;;;;;0.70;0.70;;;;;;;5.50;100.00;98912.06;5072706;28;20202;-73
2024/01/08 01:35:06;;;;;;;0.77;0.77;;;;;;;5.44;100.00;98919.69;5072970;28;20230;-73
2024/01/08 01:37:32;;;;;;;0.90;0.90;;;;;;;5.43;100.00;98920.53;5072971;28;20227;-73
2024/01/08 01:39:59;;;;;;;0.80;0.80;;;;;;;5.50;100.00;98924.94;5072878;28;20237;-73
2024/01/08 01:42:26;;;;;;;2.30;2.20;;;;;;;5.25;100.00;98927.91;5072922;28;20202;-73
2024/01/08 01:44:53;;;;;;;0.90;0.90;;;;;;;5.14;100.00;98906.31;5072637;28;20203;-73
2024/01/08 01:47:19;;;;;;;0.80;0.80;;;;;;;5.10;100.00;98930.22;5072652;28;20207;-73
2024/01/08 01:49:47;;;;;;;0.93;0.93;;;;;;;5.10;100.00;98926.81;5072507;28;20615;-73
2024/01/08 01:52:15;;;;;;;0.90;0.90;;;;;;;5.14;100.00;98929.44;5072318;28;20203;-73
2024/01/08 01:54:42;;;;;;;1.03;1.03;;;;;;;5.02;100.00;98907.81;5072182;28;20203;-73
2024/01/08 01:57:09;;;;;;;0.80;0.80;;;;;;;4.89;100.00;98912.72;5072383;28;20789;-73
2024/01/08 01:59:36;;;;;;;1.00;1.00;;;;;;;4.92;100.00;98922.19;5072101;28;20230;-72
2024/01/08 02:02:03;;;;;;;1.23;1.23;;;;;;;4.74;100.00;98898.75;5072168;28;20195;-73
2024/01/08 02:04:31;;;;;;;1.50;1.50;;;;;;;4.53;100.00;98927.41;5072219;28;20202;-73
2024/01/08 02:06:58;;;;;;;0.90;0.90;;;;;;;4.63;100.00;98923.34;5072439;28;20202;-74
2024/01/08 02:09:28;;;;;;;0.80;0.80;;;;;;;4.72;100.00;98923.50;5071685;28;20203;-74
2024/01/08 02:11:55;;;;;;;1.27;1.27;;;;;;;4.58;100.00;98919.81;5071292;28;20214;-74
2024/01/08 02:14:22;;;;;;;0.80;0.80;;;;;;;4.32;100.00;98902.19;5072178;28;20205;-74
2024/01/08 02:16:49;;;;;;;0.90;0.90;;;;;;;4.45;100.00;98927.28;5071920;28;20202;-74
2024/01/08 02:19:15;;;;;;;0.80;0.80;;;;;;;4.35;100.00;98903.97;5072211;28;20258;-74
2024/01/08 02:21:42;;;;;;;1.17;1.17;;;;;;;4.62;100.00;98921.59;5053219;28;20206;-73
2024/01/08 02:24:10;;;;;;;1.00;1.00;;;;;;;4.54;100.00;98926.56;5072043;28;20202;-76
2024/01/08 02:26:37;;;;;;;1.57;1.57;;;;;;;4.49;100.00;98926.47;5071790;28;20202;-74
2024/01/08 02:29:04;;;;;;;1.23;1.17;;;;;;;4.21;100.00;98902.81;5072276;28;20198;-73
2024/01/08 02:31:31;;;;;;;1.30;1.30;;;;;;;4.42;100.00;98934.03;5072024;28;20202;-73
2024/01/08 02:33:58;;;;;;;0.80;0.80;;;;;;;4.38;100.00;98940.81;5036860;28;20667;-74
2024/01/08 02:36:25;;;;;;;3.00;2.80;;;;;;;4.33;100.00;98941.53;5071728;28;20656;-74
2024/01/08 02:38:51;;;;;;;2.63;1.83;;;;;;;4.25;100.00;98945.63;5071330;28;20702;-74
2024/01/08 02:41:19;;;;;;;1.33;1.33;;;;;;;4.35;100.00;98948.41;5071369;28;20214;-74
2024/01/08 02:43:46;;;;;;;0.80;0.80;;;;;;;4.15;100.00;98939.44;5052557;28;20565;-74
2024/01/08 02:46:13;;;;;;;1.87;1.83;;;;;;;4.06;100.00;98936.69;5071739;28;20881;-74
2024/01/08 02:48:40;;;;;;;0.97;0.97;;;;;;;3.98;100.00;98920.25;5071470;28;20202;-74
2024/01/08 02:51:06;;;;;;;2.03;1.93;;;;;;;3.92;100.00;98946.59;5071417;28;20214;-74
2024/01/08 02:53:33;;;;;;;0.87;0.87;;;;;;;3.88;100.00;98944.84;5070990;28;20206;-74
2024/01/08 02:56:00;;;;;;;0.80;0.80;;;;;;;3.94;100.00;98950.09;5071331;28;20199;-74
2024/01/08 02:58:28;;;;;;;0.80;0.80;;;;;;;4.08;100.00;98942.69;5071463;28;20191;-74
2024/01/08 03:00:55;;;;;;;0.80;0.80;;;;;;;3.95;100.00;98951.84;5071544;28;20233;-73
2024/01/08 03:03:22;;;;;;;0.93;0.93;;;;;;;4.03;100.00;98941.75;5035392;28;20206;-74
2024/01/08 03:05:49;;;;;;;0.80;0.80;;;;;;;3.97;100.00;98951.84;5071161;28;20205;-74
2024/01/08 03:08:15;;;;;;;0.90;0.90;;;;;;;3.82;100.00;98929.28;5036268;28;20203;-73
2024/01/08 03:10:42;;;;;;;6.43;1.23;;;;;;;3.91;100.00;98951.72;5052452;28;20213;-74
2024/01/08 03:13:09;;;;;;;0.97;0.97;;;;;;;3.85;100.00;98918.25;5070887;28;20671;-74
2024/01/08 03:15:37;;;;;;;1.27;1.27;;;;;;;3.97;100.00;98952.72;5071114;28;20213;-74
2024/01/08 03:18:04;;;;;;;0.80;0.80;;;;;;;4.12;100.00;98957.34;5035763;28;20199;-72
2024/01/08 03:20:31;;;;;;;0.80;0.80;;;;;;;3.98;100.00;98951.91;5070933;28;20233;-73
2024/01/08 03:22:58;;;;;;;1.00;1.00;;;;;;;4.03;100.00;98963.97;5070496;28;20202;-72
2024/01/08 03:25:25;;;;;;;0.77;0.77;;;;;;;3.89;100.00;98966.19;5071286;28;20202;-72
2024/01/08 03:27:51;;;;;;;2.73;2.50;;;;;;;4.00;100.00;98975.00;5070926;28;20214;-72
2024/01/08 03:30:18;;;;;;;0.90;0.90;;;;;;;3.80;100.00;98978.78;5070713;28;20202;-72
2024/01/08 03:32:46;;;;;;;1.20;1.20;;;;;;;3.92;100.00;98984.22;5070316;28;20206;-72
2024/01/08 03:35:13;;;;;;;0.87;0.87;;;;;;;3.81;100.00;98975.41;5050663;28;20234;-73
2024/01/08 03:37:40;;;;;;;0.77;0.77;;;;;;;3.85;100.00;98985.75;5070755;28;20210;-73
2024/01/08 03:40:08;;;;;;;0.90;0.90;;;;;;;3.72;100.00;98994.00;5071033;28;20222;-74
2024/01/08 03:42:35;;;;;;;1.10;1.10;;;;;;;3.86;100.00;98986.63;5035122;28;20202;-74
2024/01/08 03:45:02;;;;;;;0.80;0.80;;;;;;;3.71;100.00;99006.78;5070623;28;20203;-73
2024/01/08 03:47:29;;;;;;;0.80;0.80;;;;;;;3.70;100.00;99003.34;5070739;28;20203;-73
2024/01/08 03:49:57;;;;;;;1.00;1.00;;;;;;;3.83;100.00;99007.06;5070902;28;20201;-73
2024/01/08 03:52:24;;;;;;;1.00;1.00;;;;;;;3.71;100.00;99017.88;5070292;28;20214;-73
2024/01/08 03:54:51;;;;;;;0.80;0.80;;;;;;;3.59;100.00;99012.47;5054231;28;20207;-73
2024/01/08 03:57:18;;;;;;;0.80;0.80;;;;;;;3.43;100.00;99016.31;5050478;28;20210;-72
2024/01/08 03:59:45;;;;;;;1.27;1.27;;;;;;;3.30;100.00;99009.16;5052746;28;20226;-73
2024/01/08 04:02:13;;;;;;;0.80;0.80;;;;;;;3.27;100.00;99014.19;5070091;28;20658;-73
2024/01/08 04:04:43;;;;;;;1.03;1.03;;;;;;;3.17;100.00;98978.94;5051765;28;20190;-73
2024/01/08 04:07:11;;;;;;;1.00;1.00;;;;;;;3.27;100.00;99021.88;5070521;28;20229;-73
2024/01/08 04:09:40;;;;;;;1.20;1.20;;;;;;;3.30;100.00;99037.34;5070755;28;20205;-73
2024/01/08 04:12:07;;;;;;;0.90;0.90;;;;;;;3.16;100.00;99036.09;5070119;28;20191;-73
2024/01/08 04:14:34;;;;;;;2.57;1.67;;;;;;;3.07;100.00;99035.81;5068296;28;20195;-73
2024/01/08 04:17:01;;;;;;;0.90;0.90;;;;;;;3.23;100.00;99035.44;5051535;28;20198;-73
2024/01/08 04:19:28;;;;;;;1.10;1.10;;;;;;;3.09;100.00;99034.19;5070079;28;20697;-73
2024/01/08 04:21:55;;;;;;;1.43;1.43;;;;;;;3.02;100.00;99047.66;5068360;28;20203;-74
2024/01/08 04:24:24;;;;;;;0.90;0.90;;;;;;;3.16;100.00;99046.34;5062973;28;20555;-73
2024/01/08 04:26:51;;;;;;;1.20;1.20;;;;;;;3.19;100.00;99043.84;5033905;28;20765;-74
2024/01/08 04:29:18;;;;;;;0.90;0.90;;;;;;;3.23;100.00;99043.13;5070329;28;20195;-73
2024/01/08 04:31:44;;;;;;;1.00;1.00;;;;;;;3.19;100.00;99059.22;5069882;28;20673;-73
2024/01/08 04:34:11;;;;;;;0.80;0.80;;;;;;;3.15;100.00;99065.06;5071764;28;20608;-73
2024/01/08 04:36:42;;;;;;;1.10;1.10;;;;;;;3.18;100.00;99069.41;5073407;28;20614;-73
2024/01/08 04:39:09;;;;;;;0.90;0.90;;;;;;;3.12;100.00;99070.13;5073179;28;20203;-73
2024/01/08 04:41:37;;;;;;;1.13;1.13;;;;;;;2.94;100.00;99036.31;5073108;28;20206;-74
2024/01/08 04:44:04;;;;;;;1.23;1.23;;;;;;;2.55;100.00;98989.13;5073719;28;20207;-74
2024/01/08 04:46:31;;;;;;;0.90;0.90;;;;;;;3.19;100.00;99082.25;5070884;28;20296;-74
2024/01/08 04:48:58;;;;;;;1.00;1.00;;;;;;;3.32;100.00;99092.00;5072888;28;20210;-74
2024/01/08 04:51:25;;;;;;;1.07;1.07;;;;;;;3.28;100.00;99087.63;5069985;28;20202;-74
2024/01/08 04:53:53;;;;;;;1.10;1.10;;;;;;;3.09;100.00;99099.88;5072894;28;20202;-74
2024/01/08 04:56:21;;;;;;;1.07;1.07;;;;;;;3.15;100.00;99105.16;5072913;28;20238;-74
2024/01/08 04:58:49;;;;;;;13.50;4.40;;;;;;;3.15;100.00;99100.94;5072615;28;20272;-74
2024/01/08 05:01:16;;;;;;;1.10;1.10;;;;;;;3.16;100.00;99112.91;5072148;28;20226;-74
2024/01/08 05:03:43;;;;;;;0.73;0.73;;;;;;;3.15;100.00;99095.81;5072605;28;20566;-74
2024/01/08 05:06:10;;;;;;;1.00;1.00;;;;;;;3.16;100.00;99115.47;5072768;28;20703;-74
2024/01/08 05:08:38;;;;;;;0.70;0.70;;;;;;;3.19;100.00;99117.25;5072871;28;20203;-74
2024/01/08 05:11:05;;;;;;;1.00;1.00;;;;;;;3.18;100.00;99121.50;5072693;28;20230;-73
2024/01/08 05:13:32;;;;;;;1.00;1.00;;;;;;;3.05;100.00;99114.28;5072915;28;20281;-73
2024/01/08 05:16:01;;;;;;;1.20;1.20;;;;;;;3.05;100.00;99118.53;5073055;28;20187;-72
2024/01/08 05:18:28;;;;;;;0.80;0.80;;;;;;;3.18;100.00;99110.38;5072547;28;20647;-72
2024/01/08 05:20:54;;;;;;;2.40;2.30;;;;;;;3.11;100.00;99131.50;5072269;28;20230;-73
2024/01/08 05:23:21;;;;;;;0.80;0.80;;;;;;;3.05;100.00;99124.53;5072484;28;20635;-73
2024/01/08 05:25:48;;;;;;;0.90;0.90;;;;;;;2.97;100.00;99141.34;5070228;28;20222;-72
2024/01/08 05:28:16;;;;;;;1.60;1.60;;;;;;;3.08;100.00;99150.22;5071815;28;20268;-72
2024/01/08 05:30:43;;;;;;;1.10;1.10;;;;;;;3.15;100.00;99152.13;5069379;28;20191;-73
2024/01/08 05:33:11;;;;;;;2.13;1.57;;;;;;;3.09;100.00;99157.09;5071839;28;20210;-73
2024/01/08 05:35:38;;;;;;;1.47;1.47;;;;;;;3.07;100.00;99161.28;5071586;28;20226;-73
2024/01/08 05:38:05;;;;;;;1.00;1.00;;;;;;;2.90;100.00;99168.47;5071799;28;20186;-73
2024/01/08 05:40:30;;;;;;;0.90;0.90;;;;;;;2.78;100.00;99134.81;5071462;28;20219;-73
2024/01/08 05:42:57;;;;;;;1.07;1.07;;;;;;;2.87;100.00;99158.13;5071885;28;20717;-73
2024/01/08 05:45:24;;;;;;;1.07;1.07;;;;;;;2.95;100.00;99163.50;5071392;28;20199;-73
2024/01/08 05:47:52;;;;;;;1.00;1.00;;;;;;;2.91;100.00;99156.53;5071622;28;20264;-74
2024/01/08 05:50:21;;;;;;;0.90;0.90;;;;;;;3.02;100.00;99173.09;5071383;28;20268;-73
2024/01/08 05:52:48;;;;;;;3.40;1.60;;;;;;;2.86;100.00;99183.69;5071695;28;20218;-74
2024/01/08 05:55:15;;;;;;;1.07;1.07;;;;;;;2.87;100.00;99195.66;5071725;28;20202;-73
2024/01/08 05:57:42;;;;;;;1.10;1.10;;;;;;;2.76;100.00;99208.13;5071391;28;20568;-72
2024/01/08 06:00:09;;;;;;;1.00;1.00;;;;;;;2.77;100.00;99203.88;5070492;28;20219;-73
2024/01/08 06:02:36;;;;;;;1.90;1.87;;;;;;;2.65;100.00;99209.47;5039137;28;20209;-73
2024/01/08 06:05:03;;;;;;;2.33;1.93;;;;;;;2.86;100.00;99209.28;5071854;28;20198;-73
2024/01/08 06:07:31;;;;;;;2.30;2.10;;;;;;;2.67;100.00;99206.97;5071718;28;20207;-76
2024/01/08 06:09:58;;;;;;;1.00;1.00;;;;;;;2.80;100.00;99219.31;5071801;28;20214;-75
2024/01/08 06:12:25;;;;;;;1.00;1.00;;;;;;;2.93;100.00;99224.88;5034477;28;20763;-74
2024/01/08 06:14:51;;;;;;;3.70;1.13;;;;;;;2.77;100.00;99234.59;5071099;28;20199;-75
2024/01/08 06:17:18;;;;;;;0.80;0.80;;;;;;;2.67;100.00;99201.84;5071331;28;20203;-73
2024/01/08 06:19:45;;;;;;;1.00;1.00;;;;;;;2.77;100.00;99240.59;5071036;28;20203;-73
2024/01/08 06:22:12;;;;;;;1.00;1.00;;;;;;;2.74;100.00;99239.63;5070740;28;20198;-73
2024/01/08 06:24:40;;;;;;;1.00;1.00;;;;;;;2.76;100.00;99248.19;5070028;28;20202;-73
2024/01/08 06:27:07;;;;;;;0.97;0.97;;;;;;;2.73;100.00;99255.78;5069083;28;20214;-73
2024/01/08 06:29:34;;;;;;;1.87;1.83;;;;;;;2.68;100.00;99264.97;5070957;28;20699;-73
2024/01/08 06:32:01;;;;;;;1.37;1.37;;;;;;;2.73;100.00;99260.91;5071283;28;20206;-69
2024/01/08 06:34:28;;;;;;;3.20;1.20;;;;;;;2.73;100.00;99266.88;5069974;28;20228;-72
2024/01/08 06:36:55;;;;;;;0.70;0.70;;;;;;;2.65;100.00;99268.31;5069643;28;20211;-73
2024/01/08 06:39:21;;;;;;;1.30;1.30;;;;;;;2.63;100.00;99282.78;5047563;28;20209;-72
2024/01/08 06:41:49;;;;;;;0.87;0.87;;;;;;;2.58;100.00;99279.19;5049803;28;20222;-73
2024/01/08 06:44:17;;;;;;;1.10;1.10;;;;;;;2.62;100.00;99286.13;5060637;28;20206;-73
2024/01/08 06:46:44;;;;;;;1.57;1.57;;;;;;;2.50;100.00;99301.94;5069375;28;20191;-75
2024/01/08 06:49:11;;;;;;;1.73;1.73;;;;;;;2.60;100.00;99307.38;5070091;28;20206;-75
2024/01/08 06:51:41;;;;;;;0.87;0.87;;;;;;;2.86;100.00;99316.78;5070836;28;20199;-76
2024/01/08 06:54:08;;;;;;;1.93;1.83;;;;;;;2.53;100.00;99301.19;5070708;28;20190;-78
2024/01/08 06:56:35;;;;;;;1.63;1.63;;;;;;;2.59;100.00;99314.19;5067474;28;20286;-77
2024/01/08 06:59:03;;;;;;;0.90;0.90;;;;;;;2.60;100.00;99320.19;5070481;28;20203;-75
2024/01/08 07:01:32;;;;;;;0.80;0.80;;;;;;;2.97;100.00;99341.91;5069576;28;20222;-76
2024/01/08 07:03:59;;;;;;;1.53;1.20;;;;;;;2.79;100.00;99343.88;5068611;28;20260;-77
2024/01/08 07:06:26;;;;;;;1.63;1.63;;;;;;;2.72;100.00;99354.72;5068350;28;20655;-77
2024/01/08 07:08:52;;;;;;;2.60;2.50;;;;;;;2.78;100.00;99357.47;5069815;28;20558;-76
2024/01/08 07:11:23;;;;;;;0.90;0.90;;;;;;;2.67;100.00;99360.50;5070720;28;20194;-77
2024/01/08 07:13:50;;;;;;;1.67;1.67;;;;;;;2.52;100.00;99370.19;5069010;28;20683;-77
2024/01/08 07:16:19;;;;;;;1.90;1.90;;;;;;;2.61;100.00;99378.19;5070469;28;20209;-78
2024/01/08 07:18:46;;;;;;;0.90;0.90;;;;;;;2.70;100.00;99394.75;5063778;28;20282;-75
2024/01/08 07:21:16;;;;;;;0.80;0.80;;;;;;;2.58;100.00;99398.53;5051231;28;20661;-76
2024/01/08 07:23:45;;;;;;;1.00;1.00;;;;;;;2.34;100.00;99381.53;5070182;28;20317;-76
2024/01/08 07:26:14;;;;;;;1.33;1.33;;;;;;;2.45;100.00;99394.69;5069324;28;20234;-72
2024/01/08 07:28:41;;;;;;;0.80;0.80;;;;;;;2.53;100.00;99402.66;5065685;28;20218;-72
2024/01/08 07:31:07;;;;;;;1.30;1.20;;;;;;;2.47;100.00;99413.50;5068827;28;20202;-73
2024/01/08 07:33:37;;;;;;;1.10;1.10;;;;;;;2.73;100.00;99417.88;5073917;28;20612;-73
2024/01/08 07:36:04;;;;;;;0.90;0.90;;;;;;;2.48;100.00;99397.38;5077294;28;20248;-74
2024/01/08 07:38:31;;;;;;;2.13;2.03;;;;;;;2.55;100.00;99413.78;5076252;28;20285;-74
2024/01/08 07:40:58;;;;;;;2.43;2.23;;;;;;;2.46;100.00;99407.53;5076904;28;20238;-72
2024/01/08 07:43:24;;;;;;;0.90;0.90;;;;;;;2.56;100.00;99425.78;5075653;28;20203;-73
2024/01/08 07:45:52;;;;;;;1.10;1.10;;;;;;;2.71;100.00;99436.56;5070230;28;20206;-73
2024/01/08 07:48:19;;;;;;;1.00;1.00;;;;;;;2.16;100.00;99388.53;5069868;28;20202;-73
2024/01/08 07:50:47;;;;;;;0.90;0.90;;;;;;;2.70;100.00;99443.38;5069001;28;20215;-73
2024/01/08 07:53:14;;;;;;;1.00;1.00;;;;;;;2.42;100.00;99461.97;5058265;28;20203;-73
2024/01/08 07:55:41;;;;;;;0.83;0.83;;;;;;;2.60;100.00;99463.47;5068409;28;20234;-73
2024/01/08 07:58:09;;;;;;;1.10;1.10;;;;;;;2.37;100.00;99414.00;5031216;28;20203;-72
2024/01/08 08:00:36;;;;;;;1.30;1.30;;;;;;;1.73;100.00;99372.41;5064843;28;20569;-72
2024/01/08 08:03:04;;;;;;;1.40;1.40;;;;;;;2.45;100.00;99471.44;5069864;28;20697;-73
2024/01/08 08:05:31;;;;;;;1.50;1.50;;;;;;;2.76;100.00;99491.34;5069687;28;20372;-72
2024/01/08 08:07:59;;;;;;;2.63;2.40;;;;;;;2.39;100.00;99474.63;5069854;28;20199;-73
2024/01/08 08:10:26;;;;;;;1.53;1.53;;;;;;;2.47;100.00;99503.06;5072956;28;20199;-73
2024/01/08 08:12:52;;;;;;;1.10;1.00;;;;;;;2.16;100.00;99462.69;5034554;28;20226;-73
2024/01/08 08:15:19;;;;;;;1.17;1.17;;;;;;;2.23;100.00;99480.00;5073721;28;20198;-73
2024/01/08 08:17:46;;;;;;;1.50;1.40;;;;;;;2.24;100.00;99520.09;5074002;28;20256;-73
2024/01/08 08:20:13;;;;;;;1.30;1.30;;;;;;;2.25;100.00;99505.59;5072985;28;20211;-73
2024/01/08 08:22:40;;;;;;;1.87;1.87;;;;;;;1.80;100.00;99481.69;5054524;28;20242;-73
2024/01/08 08:25:08;;;;;;;1.00;1.00;;;;;;;2.28;100.00;99532.16;5070135;28;20681;-73
2024/01/08 08:27:35;;;;;;;2.27;1.87;;;;;;;2.12;100.00;99531.53;5072045;28;20272;-73
2024/01/08 08:30:02;;;;;;;1.20;1.20;;;;;;;2.19;100.00;99538.63;5073034;28;20230;-73
2024/01/08 08:32:29;;;;;;;1.00;1.00;;;;;;;2.17;100.00;99535.16;5069289;28;20214;-73
2024/01/08 08:34:56;;;;;;;4.20;3.90;;;;;;;1.99;100.00;99550.63;5068523;28;20728;-73
2024/01/08 08:37:23;;;;;;;1.23;1.23;;;;;;;2.12;100.00;99551.97;5067190;28;20203;-73
2024/01/08 08:39:50;;;;;;;1.00;1.00;;;;;;;2.11;100.00;99538.31;5054463;28;20214;-72
2024/01/08 08:42:18;;;;;;;1.00;1.00;;;;;;;2.69;100.00;99558.47;5036731;28;20222;-71
2024/01/08 08:44:45;;;;;;;0.97;0.97;;;;;;;2.37;100.00;99565.78;5072140;28;20662;-73
2024/01/08 08:47:11;;;;;;;1.20;1.20;;;;;;;2.30;100.00;99571.47;5072691;28;20670;-72
2024/01/08 08:49:39;;;;;;;2.63;1.30;;;;;;;2.13;100.00;99569.94;5072901;28;20235;-72
2024/01/08 08:52:06;;;;;;;1.20;1.20;;;;;;;1.97;100.00;99583.78;5067999;28;20680;-72
2024/01/08 08:54:33;;;;;;;1.80;1.73;;;;;;;2.00;100.00;99583.03;5052044;28;20199;-72
2024/01/08 08:57:00;;;;;;;1.73;1.73;;;;;;;1.39;100.00;99491.09;5072594;28;20605;-72
2024/01/08 08:59:28;;;;;;;15.27;7.90;;;;;;;2.12;100.00;99557.09;5072178;28;20207;-72
2024/01/08 09:01:55;;;;;;;1.80;1.80;;;;;;;2.14;100.00;99576.78;5070651;28;20222;-72
2024/01/08 09:04:22;;;;;;;1.20;1.20;;;;;;;2.15;100.00;99586.22;5071599;28;20285;-71
2024/01/08 09:06:49;;;;;;;2.43;1.53;;;;;;;2.09;100.00;99583.41;5072332;28;20612;-72
2024/01/08 09:09:15;;;;;;;0.80;0.80;;;;;;;2.03;100.00;99575.50;5066252;28;20598;-72
2024/01/08 09:11:42;;;;;;;2.90;2.67;;;;;;;1.85;100.00;99572.22;5063985;28;20211;-72
2024/01/08 09:14:09;;;;;;;2.47;2.00;;;;;;;1.82;100.00;99582.31;5072894;28;20210;-71
2024/01/08 09:16:38;;;;;;;1.10;1.10;;;;;;;1.84;100.00;99588.34;5073260;28;20202;-72
2024/01/08 09:19:05;;;;;;;1.17;1.17;;;;;;;1.34;100.00;99514.72;5065625;28;20227;-72
2024/01/08 09:21:32;;;;;;;1.30;1.30;;;;;;;0.85;100.00;99425.88;5073101;28;20233;-72
2024/01/08 09:23:59;;;;;;;1.50;1.50;;;;;;;1.67;100.00;99613.19;5072986;28;20203;-72
2024/01/08 09:26:26;;;;;;;0.93;0.93;;;;;;;1.71;100.00;99603.97;5066609;28;20199;-72
2024/01/08 09:28:52;;;;;;;1.10;1.10;;;;;;;0.97;100.00;99457.00;5068564;28;20709;-71
2024/01/08 09:31:20;;;;;;;1.47;1.47;;;;;;;1.82;100.00;99618.09;5073089;28;20601;-72
2024/01/08 09:33:48;;;;;;;2.10;2.00;;;;;;;1.63;100.00;99621.53;5072855;28;20294;-73
2024/01/08 09:36:15;;;;;;;1.00;1.00;;;;;;;1.65;100.00;99631.81;5070997;28;20238;-73
2024/01/08 09:38:43;;;;;;;1.20;1.20;;;;;;;1.79;100.00;99639.25;5033973;28;20203;-72
2024/01/08 09:41:12;;;;;;;1.60;1.50;;;;;;;2.38;100.00;99628.94;5071972;28;20223;-72
2024/01/08 09:43:40;;;;;;;1.00;1.00;;;;;;;1.97;100.00;99636.59;5072159;28;20195;-72
2024/01/08 09:46:09;;;;;;;1.70;1.70;;;;;;;1.70;100.00;99602.22;5071969;28;20280;-72
2024/01/08 09:48:36;;;;;;;1.97;1.87;;;;;;;1.90;100.00;99650.81;5071659;28;20217;-72
2024/01/08 09:51:05;;;;;;;1.77;1.77;;;;;;;1.01;100.00;99503.94;5068262;28;20213;-72
2024/01/08 09:53:33;;;;;;;1.00;1.00;;;;;;;2.01;100.00;99646.13;5034461;28;20200;-73
2024/01/08 09:56:00;;;;;;;0.70;0.70;;;;;;;2.02;100.00;99642.78;5071899;28;20222;-72
2024/01/08 09:58:27;;;;;;;5.83;3.43;;;;;;;1.57;100.00;99649.34;5071527;28;20256;-73
2024/01/08 10:00:54;;;;;;;1.40;1.40;;;;;;;1.76;100.00;99639.13;5071200;28;20236;-73
2024/01/08 10:03:22;;;;;;;1.20;1.20;;;;;;;2.19;100.00;99648.56;5071907;28;20210;-74
2024/01/08 10:05:49;;;;;;;1.20;1.20;;;;;;;1.85;100.00;99646.31;5071393;28;20202;-73
2024/01/08 10:08:17;;;;;;;1.10;1.10;;;;;;;2.32;100.00;99654.25;5071146;28;20645;-74
2024/01/08 10:10:44;;;;;;;1.00;1.00;;;;;;;1.84;100.00;99658.22;5069332;28;20679;-74
2024/01/08 10:13:14;;;;;;;1.37;1.27;;;;;;;1.37;100.00;99574.44;5071442;28;20203;-73
2024/01/08 10:15:47;;;;;;;1.10;1.10;;;;;;;1.61;100.00;99606.94;5071624;28;20657;-72
2024/01/08 10:18:16;;;;;;;1.43;1.43;;;;;;;1.37;100.00;99614.44;5072030;28;20267;-73
2024/01/08 10:20:44;;;;;;;1.50;1.50;;;;;;;1.32;100.00;99655.06;5071553;28;20203;-73
2024/01/08 10:23:16;;;;;;;1.17;1.17;;;;;;;1.42;100.00;99630.84;5072072;28;20218;-73
2024/01/08 10:25:50;;;;;;;3.60;2.63;;;;;;;1.40;100.00;99683.50;5070501;28;20208;-72
2024/01/08 10:28:18;;;;;;;1.07;1.07;;;;;;;1.04;100.00;99606.16;5063712;28;20229;-73
2024/01/08 10:30:44;;;;;;;2.27;2.07;;;;;;;1.42;100.00;99694.69;5061245;28;20306;-73
2024/01/08 10:33:11;;;;;;;1.53;1.53;;;;;;;1.41;100.00;99685.25;5071258;28;20217;-72
2024/01/08 10:35:40;;;;;;;1.23;1.23;;;;;;;0.69;100.00;99567.97;5071059;28;20241;-73
2024/01/08 10:38:08;;;;;;;1.10;1.10;;;;;;;1.66;100.00;99702.53;5069866;28;20213;-74
2024/01/08 10:40:35;;;;;;;1.63;1.63;;;;;;;1.70;100.00;99701.88;5070601;28;20207;-77
2024/01/08 10:43:03;;;;;;;1.67;1.20;;;;;;;1.58;100.00;99703.88;5070504;28;20231;-73
2024/01/08 10:45:30;;;;;;;2.13;2.03;;;;;;;1.28;100.00;99683.84;5071059;28;20194;-73
2024/01/08 10:48:05;;;;;;;1.10;1.10;;;;;;;1.40;100.00;99693.72;5070940;28;20615;-73
2024/01/08 10:50:37;;;;;;;1.30;1.30;;;;;;;1.37;100.00;99709.78;5071116;28;20593;-76
2024/01/08 10:53:09;;;;;;;1.40;1.40;;;;;;;1.30;100.00;99712.88;5071008;28;20260;-74
2024/01/08 10:55:39;;;;;;;1.30;1.30;;;;;;;1.31;100.00;99709.53;5071015;28;20206;-77
2024/01/08 10:58:10;;;;;;;1.10;1.10;;;;;;;1.30;100.00;99707.78;5068022;28;20209;-76
2024/01/08 11:00:37;;;;;;;1.30;1.30;;;;;;;1.30;100.00;99717.09;5070676;28;20249;-75
2024/01/08 11:03:04;;;;;;;2.40;2.30;;;;;;;1.27;100.00;99711.88;5067488;28;20221;-75
2024/01/08 11:05:33;;;;;;;1.40;1.40;;;;;;;1.16;100.00;99713.94;5035754;28;20194;-77
2024/01/08 11:08:01;;;;;;;2.10;2.10;;;;;;;1.32;100.00;99721.47;5070364;28;20194;-75
2024/01/08 11:10:29;;;;;;;1.27;1.27;;;;;;;1.34;100.00;99724.97;5051620;28;20582;-78
2024/01/08 11:12:57;;;;;;;8.93;1.97;;;;;;;1.26;100.00;99718.63;5070261;28;20653;-72
2024/01/08 11:15:27;;;;;;;0.97;0.97;;;;;;;1.50;100.00;99649.91;5067432;28;20199;-71
2024/01/08 11:17:55;;;;;;;1.20;1.20;;;;;;;1.21;100.00;99721.81;5070344;28;20194;-72
2024/01/08 11:20:42;;;;;;;1.43;1.43;;;;;;;1.62;100.00;99733.88;5067985;28;20211;-73
2024/01/08 11:23:40;;;;;;;0.87;0.87;;;;;;;1.53;100.00;99728.38;5068930;28;20222;-72
2024/01/08 11:26:10;;;;;;;1.20;1.20;;;;;;;1.15;100.00;99684.09;5039518;28;20647;-72
2024/01/08 11:28:39;;;;;;;1.10;1.10;;;;;;;1.34;100.00;99735.19;5038597;28;20200;-73
2024/01/08 11:32:12;;;;;;;1.17;1.17;;;;;;;1.75;100.00;99749.81;5035878;28;20706;-73
2024/01/08 11:34:55;;;;;;;1.20;1.20;;;;;;;1.46;100.00;99753.59;5034435;28;20269;-73
2024/01/08 11:37:34;;;;;;;0.97;0.97;;;;;;;1.26;100.00;99758.63;5038326;28;20254;-74